Time;durP1;ratioP1;P1;durP2;ratioP2;P2;SDS_P1;SDS_P2;PMS_P1;PMS_P2;Temp;Humidity;BMP_temperature;BMP_pressure;BME280_temperature;BME280_humidity;BME280_pressure;Samples;Min_cycle;Max_cycle;Signal;HPM_P1;HPM_P2
2022/11/23 06:45:59;;;;;;;6.63;1.30;;;7.10;99.90;;;;;;4272785;26;20217;-75
2022/11/23 06:48:25;;;;;;;8.50;0.93;;;7.10;99.90;;;;;;4924641;29;20210;-75
2022/11/23 06:50:53;;;;;;;6.50;0.80;;;7.10;99.90;;;;;;4923321;29;20242;-74
2022/11/23 06:53:20;;;;;;;6.47;0.77;;;7.10;99.90;;;;;;4924889;29;20600;-75
2022/11/23 06:55:47;;;;;;;4.73;0.83;;;7.00;99.90;;;;;;4920497;29;20211;-74
2022/11/23 06:58:13;;;;;;;4.83;0.77;;;7.10;99.90;;;;;;4916372;29;20205;-74
2022/11/23 07:00:40;;;;;;;5.67;0.90;;;7.00;99.90;;;;;;4924516;29;20240;-75
2022/11/23 07:03:17;;;;;;;4.03;1.10;;;7.00;99.90;;;;;;4920762;29;20572;-75
2022/11/23 07:05:43;;;;;;;4.73;0.80;;;7.00;99.90;;;;;;4916521;29;20587;-74
2022/11/23 07:08:10;;;;;;;2.93;1.00;;;6.90;99.90;;;;;;4918805;29;20275;-73
2022/11/23 07:10:37;;;;;;;2.83;0.70;;;6.90;99.90;;;;;;4923666;29;20237;-74
2022/11/23 07:13:05;;;;;;;8.63;0.83;;;6.90;99.90;;;;;;4922091;29;20243;-74
2022/11/23 07:15:32;;;;;;;6.33;0.80;;;6.90;99.90;;;;;;4923727;29;20201;-76
2022/11/23 07:17:59;;;;;;;5.87;0.90;;;6.90;99.90;;;;;;4917439;29;20296;-77
2022/11/23 07:20:27;;;;;;;2.60;0.73;;;6.80;99.90;;;;;;4921043;29;20216;-73
2022/11/23 07:23:00;;;;;;;5.53;1.07;;;6.80;99.90;;;;;;4917439;29;20209;-75
2022/11/23 07:25:27;;;;;;;8.60;1.70;;;6.80;99.90;;;;;;4914136;29;20684;-74
2022/11/23 07:27:56;;;;;;;9.20;1.00;;;6.80;99.90;;;;;;4918859;29;20232;-75
2022/11/23 07:30:23;;;;;;;5.67;0.90;;;6.80;99.90;;;;;;4917459;29;20573;-77
2022/11/23 07:32:49;;;;;;;5.37;0.87;;;6.80;99.90;;;;;;4920584;29;20255;-77
2022/11/23 07:35:17;;;;;;;10.40;1.13;;;6.90;99.90;;;;;;4919130;29;20304;-77
2022/11/23 07:37:45;;;;;;;11.80;1.53;;;6.90;99.90;;;;;;4917370;29;20683;-76
2022/11/23 07:40:12;;;;;;;5.43;1.20;;;6.80;99.90;;;;;;4923120;29;20393;-77
2022/11/23 07:42:39;;;;;;;5.77;1.20;;;6.80;99.90;;;;;;4919824;29;20229;-77
2022/11/23 07:45:08;;;;;;;2.13;1.10;;;6.80;99.90;;;;;;4917697;29;20218;-76
2022/11/23 07:47:35;;;;;;;3.37;0.90;;;6.90;99.90;;;;;;4917417;29;20214;-76
2022/11/23 07:50:01;;;;;;;6.93;1.20;;;7.00;99.90;;;;;;4917735;29;20216;-77
2022/11/23 07:52:28;;;;;;;5.77;1.30;;;7.00;99.90;;;;;;4918482;29;20245;-78
2022/11/23 07:54:56;;;;;;;4.17;1.00;;;7.10;99.90;;;;;;4918150;29;20218;-78
2022/11/23 07:57:23;;;;;;;6.03;1.00;;;7.10;99.90;;;;;;4918337;29;20209;-76
2022/11/23 07:59:50;;;;;;;5.57;1.20;;;6.90;99.90;;;;;;4918127;29;20212;-78
2022/11/23 08:02:17;;;;;;;6.03;1.10;;;7.00;99.90;;;;;;4918196;29;20226;-77
2022/11/23 08:04:43;;;;;;;9.53;1.20;;;7.10;99.90;;;;;;4917740;29;20683;-78
2022/11/23 08:07:11;;;;;;;8.63;1.33;;;7.10;99.90;;;;;;4918144;29;20216;-77
2022/11/23 08:09:37;;;;;;;2.67;0.80;;;7.10;99.90;;;;;;4918301;29;20209;-79
2022/11/23 08:12:06;;;;;;;8.80;1.40;;;7.00;99.90;;;;;;4917476;29;20241;-78
2022/11/23 08:14:33;;;;;;;4.97;1.53;;;7.00;99.90;;;;;;4917664;29;20218;-78
2022/11/23 08:17:00;;;;;;;4.13;0.90;;;7.00;99.90;;;;;;4917944;29;20216;-77
2022/11/23 08:19:26;;;;;;;2.33;1.00;;;6.90;99.90;;;;;;4917789;29;20208;-77
2022/11/23 08:21:53;;;;;;;2.53;0.90;;;7.00;99.90;;;;;;4917671;29;20234;-78
2022/11/23 08:24:20;;;;;;;6.30;0.90;;;7.10;99.90;;;;;;4917704;29;20214;-78
2022/11/23 08:26:47;;;;;;;9.13;1.50;;;7.10;99.90;;;;;;4917525;29;20572;-77
2022/11/23 08:29:15;;;;;;;6.80;0.73;;;7.10;99.90;;;;;;4916791;29;20296;-78
2022/11/23 08:31:42;;;;;;;2.67;0.87;;;7.20;99.90;;;;;;4917037;29;20234;-76
2022/11/23 08:34:09;;;;;;;7.10;1.10;;;7.30;99.90;;;;;;4917374;29;20305;-78
2022/11/23 08:36:37;;;;;;;5.57;0.80;;;7.40;99.90;;;;;;4917954;29;20209;-77
2022/11/23 08:39:04;;;;;;;11.80;1.77;;;7.50;99.90;;;;;;4917034;29;20214;-76
2022/11/23 08:41:30;;;;;;;6.40;1.80;;;7.60;99.90;;;;;;4916939;29;20230;-72
2022/11/23 08:43:57;;;;;;;3.50;1.00;;;7.70;99.90;;;;;;4916770;29;20209;-76
2022/11/23 08:46:25;;;;;;;6.57;0.80;;;7.80;99.90;;;;;;4916905;29;20217;-76
2022/11/23 08:48:52;;;;;;;3.37;0.67;;;7.90;99.90;;;;;;4916887;29;20209;-75
2022/11/23 08:51:21;;;;;;;3.67;0.93;;;7.90;99.90;;;;;;4916876;29;20708;-76
2022/11/23 08:53:48;;;;;;;5.27;0.67;;;8.00;99.90;;;;;;4917405;29;20237;-77
2022/11/23 08:56:15;;;;;;;4.00;1.00;;;8.10;99.90;;;;;;4908198;29;20206;-76
2022/11/23 08:58:42;;;;;;;3.10;1.10;;;8.10;99.90;;;;;;4905990;29;20213;-76
2022/11/23 09:01:09;;;;;;;3.30;1.00;;;8.00;99.90;;;;;;4907027;29;20711;-76
2022/11/23 09:03:37;;;;;;;4.53;0.90;;;8.10;99.90;;;;;;4907047;29;20285;-73
2022/11/23 09:06:04;;;;;;;4.37;0.90;;;8.20;99.90;;;;;;4905980;29;20206;-76
2022/11/23 09:08:31;;;;;;;2.80;0.90;;;8.40;99.90;;;;;;4908598;29;20212;-76
2022/11/23 09:11:00;;;;;;;3.30;0.93;;;8.50;99.90;;;;;;4905960;29;20221;-76
2022/11/23 09:13:27;;;;;;;8.77;1.07;;;8.50;99.90;;;;;;4906146;29;20234;-74
2022/11/23 09:15:57;;;;;;;3.70;0.90;;;8.60;99.90;;;;;;4910704;29;20212;-76
2022/11/23 09:18:24;;;;;;;3.93;0.90;;;8.50;99.90;;;;;;4916073;29;20202;-76
2022/11/23 09:20:52;;;;;;;1.77;0.77;;;8.70;99.90;;;;;;4916268;29;20233;-76
2022/11/23 09:23:19;;;;;;;4.87;1.10;;;8.60;99.90;;;;;;4913797;29;20212;-74
2022/11/23 09:25:48;;;;;;;2.67;0.80;;;8.70;99.90;;;;;;4913460;29;20216;-76
2022/11/23 09:28:18;;;;;;;5.20;1.97;;;8.70;99.90;;;;;;4907205;29;20732;-75
2022/11/23 09:30:46;;;;;;;1.70;0.80;;;8.70;99.90;;;;;;4906753;29;20218;-77
2022/11/23 09:33:13;;;;;;;2.90;1.30;;;8.60;99.90;;;;;;4905452;29;20230;-76
2022/11/23 09:35:40;;;;;;;4.17;1.13;;;8.70;99.90;;;;;;4906401;29;20208;-76
2022/11/23 09:38:08;;;;;;;3.90;1.13;;;8.80;99.90;;;;;;4907182;29;20206;-77
2022/11/23 09:40:38;;;;;;;1.33;0.70;;;8.80;99.90;;;;;;4917314;29;20209;-77
2022/11/23 09:43:25;;;;;;;4.27;0.90;;;8.70;99.90;;;;;;4920360;29;20205;-76
2022/11/23 09:45:54;;;;;;;7.93;0.80;;;8.70;99.90;;;;;;4920237;29;20231;-74
2022/11/23 09:48:38;;;;;;;7.47;0.83;;;8.70;99.90;;;;;;4914687;29;20206;-76
2022/11/23 09:51:14;;;;;;;5.13;1.07;;;8.80;99.90;;;;;;4908574;29;20217;-75
2022/11/23 09:53:46;;;;;;;2.83;0.87;;;8.80;99.90;;;;;;4911440;29;20225;-76
2022/11/23 09:56:18;;;;;;;2.60;1.23;;;9.00;99.90;;;;;;4910415;29;20203;-77
2022/11/23 09:58:45;;;;;;;1.40;0.90;;;9.10;99.90;;;;;;4909257;29;20206;-75
2022/11/23 10:01:14;;;;;;;4.10;1.20;;;9.20;99.90;;;;;;4907166;29;20226;-78
2022/11/23 10:03:42;;;;;;;2.70;0.50;;;9.20;99.90;;;;;;4900853;29;20213;-75
2022/11/23 10:06:18;;;;;;;3.67;0.93;;;9.40;99.90;;;;;;4900773;29;20234;-78
2022/11/23 10:08:58;;;;;;;3.83;0.80;;;9.50;99.90;;;;;;4905924;29;20208;-76
2022/11/23 10:11:43;;;;;;;2.97;0.97;;;9.40;99.90;;;;;;4900395;29;20769;-76
2022/11/23 10:14:27;;;;;;;2.93;0.77;;;9.20;99.90;;;;;;4900417;29;20234;-76
2022/11/23 10:17:02;;;;;;;5.50;0.90;;;9.20;99.90;;;;;;4900933;29;20211;-75
2022/11/23 10:19:47;;;;;;;3.57;0.70;;;9.40;99.90;;;;;;4900684;29;20214;-77
2022/11/23 10:22:21;;;;;;;4.53;0.70;;;9.30;99.90;;;;;;4900205;29;20258;-77
2022/11/23 10:24:51;;;;;;;1.00;0.50;;;9.20;99.90;;;;;;4900561;29;20221;-76
2022/11/23 10:27:20;;;;;;;4.73;0.73;;;9.20;99.90;;;;;;4900584;29;20614;-75
2022/11/23 10:29:48;;;;;;;5.13;0.70;;;9.20;99.90;;;;;;4900614;29;20229;-74
2022/11/23 10:32:26;;;;;;;2.03;0.97;;;9.30;99.90;;;;;;4900477;29;20231;-74
2022/11/23 10:35:01;;;;;;;4.43;0.70;;;9.30;99.90;;;;;;4900816;29;20210;-75
2022/11/23 10:37:29;;;;;;;2.93;0.80;;;9.40;99.90;;;;;;4900732;29;20301;-74
2022/11/23 10:39:57;;;;;;;1.37;0.53;;;9.30;99.90;;;;;;4900559;29;20242;-72
2022/11/23 10:42:30;;;;;;;2.37;0.80;;;9.30;99.90;;;;;;4900384;29;20236;-76
2022/11/23 10:44:59;;;;;;;5.10;0.70;;;9.30;99.90;;;;;;4900332;29;20229;-75
2022/11/23 10:47:41;;;;;;;4.23;0.80;;;9.20;99.90;;;;;;4900099;29;20221;-76
2022/11/23 10:50:22;;;;;;;1.43;0.53;;;9.20;99.90;;;;;;4900015;29;20565;-75
2022/11/23 10:52:55;;;;;;;3.13;1.10;;;9.20;99.90;;;;;;4899637;29;20260;-76
2022/11/23 10:55:27;;;;;;;3.80;0.80;;;9.30;99.90;;;;;;4899841;29;20245;-74
2022/11/23 10:57:54;;;;;;;5.07;0.80;;;9.30;99.90;;;;;;4899869;29;20585;-75
2022/11/23 11:00:23;;;;;;;6.13;0.97;;;9.40;99.90;;;;;;4899369;29;20206;-76
2022/11/23 11:02:52;;;;;;;1.73;0.60;;;9.50;99.90;;;;;;4899045;29;20214;-75
2022/11/23 11:05:29;;;;;;;3.97;1.10;;;9.60;99.90;;;;;;4899669;29;20217;-75
2022/11/23 11:07:58;;;;;;;3.40;0.70;;;9.70;99.90;;;;;;4899756;29;20661;-76
2022/11/23 11:10:36;;;;;;;1.47;0.70;;;9.80;99.90;;;;;;4899822;29;20218;-77
2022/11/23 11:13:03;;;;;;;4.23;0.60;;;9.90;99.90;;;;;;4899862;29;20241;-76
2022/11/23 11:15:30;;;;;;;3.53;0.70;;;10.00;99.90;;;;;;4899472;29;20278;-75
2022/11/23 11:17:59;;;;;;;4.00;0.60;;;10.10;99.90;;;;;;4899582;29;20297;-75
2022/11/23 11:20:32;;;;;;;2.50;0.70;;;10.10;99.90;;;;;;4900234;29;20215;-76
2022/11/23 11:23:02;;;;;;;2.70;0.80;;;10.20;99.90;;;;;;4900098;29;20217;-77
2022/11/23 11:25:34;;;;;;;2.47;0.77;;;10.20;99.90;;;;;;4900014;29;20210;-74
2022/11/23 11:28:03;;;;;;;2.13;0.53;;;10.30;99.90;;;;;;4901973;29;20692;-76
2022/11/23 11:30:38;;;;;;;3.40;0.90;;;10.50;99.90;;;;;;4902354;29;20197;-76
2022/11/23 11:33:11;;;;;;;1.73;0.50;;;10.60;99.90;;;;;;4916809;29;20603;-76
2022/11/23 11:35:43;;;;;;;4.20;0.80;;;10.50;99.90;;;;;;4914972;29;20671;-76
2022/11/23 11:38:16;;;;;;;2.47;0.50;;;10.60;99.90;;;;;;4918032;29;20198;-75
2022/11/23 11:40:46;;;;;;;2.53;0.80;;;10.60;99.90;;;;;;4920862;29;20238;-77
2022/11/23 11:43:20;;;;;;;1.27;0.60;;;10.70;99.90;;;;;;4918076;29;20669;-77
2022/11/23 11:45:48;;;;;;;0.93;0.50;;;10.70;99.90;;;;;;4917404;29;20217;-73
2022/11/23 11:48:19;;;;;;;1.47;0.60;;;10.70;99.90;;;;;;4918659;29;20679;-74
2022/11/23 11:50:50;;;;;;;1.80;0.70;;;10.70;99.90;;;;;;4918241;29;20226;-72
2022/11/23 11:53:22;;;;;;;2.87;0.40;;;10.70;99.90;;;;;;4918107;29;20313;-75
2022/11/23 11:55:55;;;;;;;1.23;0.43;;;10.70;99.90;;;;;;4918561;29;20209;-73
2022/11/23 11:58:25;;;;;;;1.10;0.30;;;10.80;99.90;;;;;;4918542;29;20209;-74
2022/11/23 12:00:58;;;;;;;1.37;0.50;;;10.90;99.90;;;;;;4918321;29;20225;-75
2022/11/23 12:03:37;;;;;;;0.87;0.40;;;10.90;99.90;;;;;;4918176;29;20220;-74
2022/11/23 12:06:11;;;;;;;1.00;0.40;;;10.90;99.90;;;;;;4917732;29;20219;-75
2022/11/23 12:08:46;;;;;;;4.83;0.60;;;11.10;99.90;;;;;;4918340;29;20217;-74
2022/11/23 12:11:14;;;;;;;1.43;0.40;;;11.20;99.90;;;;;;4918313;29;20225;-72
2022/11/23 12:13:45;;;;;;;1.80;0.53;;;11.10;99.90;;;;;;4917757;29;20237;-74
2022/11/23 12:16:20;;;;;;;2.80;0.43;;;11.00;99.90;;;;;;4917325;29;20581;-74
2022/11/23 12:19:15;;;;;;;4.73;0.67;;;11.00;99.90;;;;;;4917551;29;20220;-75
2022/11/23 12:22:14;;;;;;;1.07;0.30;;;10.80;99.90;;;;;;4905028;29;20225;-76
2022/11/23 12:25:03;;;;;;;3.03;0.50;;;10.80;99.90;;;;;;4917369;29;20220;-73
2022/11/23 12:27:39;;;;;;;2.30;0.30;;;10.90;99.90;;;;;;4917192;29;20567;-76
2022/11/23 12:30:20;;;;;;;1.27;0.63;;;10.80;99.90;;;;;;4917336;29;20216;-75
2022/11/23 12:33:15;;;;;;;0.60;0.30;;;10.80;99.90;;;;;;4917422;29;20209;-74
2022/11/23 12:36:08;;;;;;;2.40;0.50;;;10.70;99.90;;;;;;4908467;29;20217;-76
2022/11/23 12:38:44;;;;;;;2.27;0.60;;;10.40;99.90;;;;;;4917303;29;20736;-76
2022/11/23 12:41:23;;;;;;;2.27;0.47;;;10.10;99.90;;;;;;4917774;29;20236;-76
2022/11/23 12:44:15;;;;;;;0.80;0.47;;;10.10;99.90;;;;;;4917005;29;20221;-75
2022/11/23 12:46:49;;;;;;;2.17;0.80;;;10.00;99.90;;;;;;4914673;29;20213;-73
2022/11/23 12:49:28;;;;;;;2.10;0.40;;;9.80;99.90;;;;;;4916757;29;20691;-74
2022/11/23 12:52:16;;;;;;;0.53;0.30;;;9.70;99.90;;;;;;4916729;29;20236;-77
2022/11/23 12:54:54;;;;;;;3.27;0.50;;;9.80;99.90;;;;;;4916945;29;20248;-74
2022/11/23 12:57:26;;;;;;;1.40;0.60;;;9.80;99.90;;;;;;4916934;29;20209;-75
2022/11/23 13:00:00;;;;;;;0.80;0.50;;;9.60;99.90;;;;;;4916693;29;20209;-76
2022/11/23 13:03:09;;;;;;;2.47;0.70;;;9.50;99.90;;;;;;4916778;29;20580;-76
2022/11/23 13:06:03;;;;;;;0.73;0.33;;;9.50;99.90;;;;;;4899351;29;20202;-76
2022/11/23 13:08:54;;;;;;;0.50;0.30;;;9.30;99.90;;;;;;4914449;29;20198;-73
2022/11/23 13:11:35;;;;;;;3.23;0.53;;;9.30;99.90;;;;;;4914694;29;20240;-75
2022/11/23 13:14:16;;;;;;;0.70;0.30;;;9.30;99.90;;;;;;4916144;29;20240;-73
2022/11/23 13:17:03;;;;;;;0.70;0.40;;;9.20;99.90;;;;;;4916802;29;20576;-72
2022/11/23 13:19:41;;;;;;;3.80;0.50;;;9.20;99.90;;;;;;4914759;29;20205;-74
2022/11/23 13:22:14;;;;;;;0.60;0.30;;;9.20;99.90;;;;;;4913463;29;20580;-73
2022/11/23 13:25:01;;;;;;;2.47;0.40;;;9.10;99.90;;;;;;4915848;29;20206;-74
2022/11/23 13:27:55;;;;;;;3.13;0.50;;;9.10;99.90;;;;;;4913138;29;20212;-77
2022/11/23 13:30:28;;;;;;;1.57;0.53;;;9.10;99.90;;;;;;4916443;29;20219;-74
2022/11/23 13:32:58;;;;;;;2.00;0.67;;;9.00;99.90;;;;;;4916657;29;20210;-74
2022/11/23 13:35:47;;;;;;;3.70;0.80;;;9.00;99.90;;;;;;4916537;29;20213;-73
2022/11/23 13:38:26;;;;;;;0.73;0.47;;;8.90;99.90;;;;;;4916534;29;20216;-77
2022/11/23 13:40:54;;;;;;;1.77;1.10;;;8.90;99.90;;;;;;4916528;29;20233;-73
2022/11/23 13:43:24;;;;;;;1.30;0.67;;;8.90;99.90;;;;;;4916357;29;20210;-75
2022/11/23 13:46:21;;;;;;;0.60;0.30;;;8.90;99.90;;;;;;4916357;29;20213;-76
2022/11/23 13:48:52;;;;;;;1.13;0.30;;;8.80;99.90;;;;;;4916841;29;20308;-77
2022/11/23 13:51:27;;;;;;;5.67;0.50;;;8.80;99.90;;;;;;4916367;29;20629;-77
2022/11/23 13:53:58;;;;;;;0.67;0.30;;;8.70;99.90;;;;;;4916203;29;20327;-78
2022/11/23 13:56:31;;;;;;;0.70;0.40;;;8.70;99.90;;;;;;4916325;29;20586;-78
2022/11/23 13:58:59;;;;;;;0.70;0.30;;;8.60;99.90;;;;;;4916669;29;20210;-76
2022/11/23 14:01:59;;;;;;;0.70;0.60;;;8.60;99.90;;;;;;4916744;29;20239;-76
2022/11/23 14:04:28;;;;;;;0.70;0.33;;;8.60;99.90;;;;;;4912436;29;20644;-76
2022/11/23 14:06:58;;;;;;;1.03;0.60;;;8.60;99.90;;;;;;4916837;29;20216;-76
2022/11/23 14:09:31;;;;;;;1.33;0.57;;;8.50;99.90;;;;;;4916866;29;20224;-76
2022/11/23 14:12:07;;;;;;;2.20;0.60;;;8.50;99.90;;;;;;4917483;29;20237;-73
2022/11/23 14:14:51;;;;;;;0.60;0.40;;;8.50;99.90;;;;;;4916657;29;20328;-76
2022/11/23 14:17:35;;;;;;;0.60;0.30;;;8.50;99.90;;;;;;4916387;29;20210;-76
2022/11/23 14:20:38;;;;;;;2.67;0.50;;;8.50;99.90;;;;;;4916496;29;20216;-75
2022/11/23 14:23:29;;;;;;;1.13;0.60;;;8.50;99.90;;;;;;4916607;29;20240;-75
2022/11/23 14:26:10;;;;;;;1.13;0.60;;;8.60;99.90;;;;;;4914071;29;20214;-76
2022/11/23 14:28:48;;;;;;;3.27;0.70;;;8.60;99.90;;;;;;4920060;29;20206;-76
2022/11/23 14:31:22;;;;;;;1.20;0.50;;;8.70;99.90;;;;;;4919660;29;20225;-75
2022/11/23 14:33:55;;;;;;;2.40;0.70;;;8.70;99.90;;;;;;4919834;29;20243;-74
2022/11/23 14:36:35;;;;;;;1.17;0.37;;;8.70;99.90;;;;;;4919665;29;20580;-73
2022/11/23 14:39:39;;;;;;;6.07;1.00;;;8.70;99.90;;;;;;4919669;29;20205;-74
2022/11/23 14:42:12;;;;;;;6.70;2.10;;;8.70;99.90;;;;;;4919565;29;20226;-74
2022/11/23 14:44:41;;;;;;;6.23;2.30;;;8.60;99.90;;;;;;4919409;29;20217;-73
2022/11/23 14:47:10;;;;;;;14.70;6.40;;;8.70;99.90;;;;;;4919048;29;20221;-73
2022/11/23 14:49:47;;;;;;;4.97;2.00;;;8.70;99.90;;;;;;4919191;29;20321;-74
2022/11/23 14:52:19;;;;;;;3.87;1.83;;;8.80;99.90;;;;;;4919456;29;20243;-74
2022/11/23 14:54:48;;;;;;;26.87;11.07;;;8.80;99.90;;;;;;4919596;29;20247;-74
2022/11/23 14:57:15;;;;;;;12.33;4.80;;;9.00;99.90;;;;;;4919023;29;20947;-74
2022/11/23 14:59:48;;;;;;;14.20;5.73;;;8.90;99.90;;;;;;4919071;29;20224;-72
2022/11/23 15:02:18;;;;;;;11.30;5.40;;;9.00;99.90;;;;;;4919023;29;20233;-73
2022/11/23 15:05:04;;;;;;;11.00;3.73;;;8.90;99.90;;;;;;4919577;29;20564;-73
2022/11/23 15:07:47;;;;;;;13.50;6.13;;;8.90;99.90;;;;;;4919169;29;20212;-73
2022/11/23 15:10:29;;;;;;;7.37;3.40;;;8.80;99.90;;;;;;4919195;29;20218;-73
2022/11/23 15:12:56;;;;;;;4.13;2.50;;;8.70;99.90;;;;;;4919102;29;20210;-72
2022/11/23 15:15:25;;;;;;;5.63;2.30;;;8.70;99.90;;;;;;4918198;29;20244;-73
2022/11/23 15:17:53;;;;;;;4.87;1.40;;;8.70;99.90;;;;;;4918454;29;20703;-73
2022/11/23 15:20:22;;;;;;;5.53;2.73;;;8.70;99.90;;;;;;4918930;29;20213;-74
2022/11/23 15:22:50;;;;;;;2.37;1.33;;;8.70;99.90;;;;;;4918638;29;20206;-72
2022/11/23 15:25:18;;;;;;;3.90;1.47;;;8.70;99.90;;;;;;4918839;29;20205;-73
2022/11/23 15:27:46;;;;;;;2.07;1.13;;;8.80;99.90;;;;;;4918800;29;20265;-73
2022/11/23 15:30:16;;;;;;;2.50;0.57;;;8.80;99.90;;;;;;4918729;29;20210;-73
2022/11/23 15:32:43;;;;;;;1.60;0.87;;;8.80;99.90;;;;;;4918296;29;20225;-74
2022/11/23 15:35:14;;;;;;;3.70;0.87;;;8.80;99.90;;;;;;4918237;29;20253;-73
2022/11/23 15:37:45;;;;;;;2.63;1.13;;;8.80;99.90;;;;;;4918200;29;20216;-73
2022/11/23 15:40:16;;;;;;;7.83;3.93;;;8.80;99.90;;;;;;4918597;29;20209;-74
2022/11/23 15:42:44;;;;;;;11.50;4.77;;;8.80;99.90;;;;;;4915316;29;20203;-74
2022/11/23 15:45:36;;;;;;;4.77;1.47;;;8.80;99.90;;;;;;4907058;29;20704;-74
2022/11/23 15:48:05;;;;;;;5.80;1.63;;;8.80;99.90;;;;;;4908800;29;20290;-74
2022/11/23 15:50:33;;;;;;;4.90;2.00;;;8.70;99.90;;;;;;4907232;29;20209;-73
2022/11/23 15:53:00;;;;;;;7.90;2.90;;;8.70;99.90;;;;;;4907290;29;20203;-73
2022/11/23 15:55:30;;;;;;;10.57;3.77;;;8.60;99.90;;;;;;4906955;29;20232;-76
2022/11/23 15:57:57;;;;;;;12.43;5.70;;;8.50;99.90;;;;;;4907682;29;20230;-76
2022/11/23 16:00:26;;;;;;;6.73;2.60;;;8.50;99.90;;;;;;4907024;29;20253;-75
2022/11/23 16:02:53;;;;;;;7.37;2.40;;;8.50;99.90;;;;;;4907032;29;20203;-74
2022/11/23 16:05:22;;;;;;;3.57;1.40;;;8.50;99.90;;;;;;4908085;29;20212;-75
2022/11/23 16:07:50;;;;;;;3.73;1.80;;;8.40;99.90;;;;;;4908823;29;20217;-76
2022/11/23 16:10:19;;;;;;;2.90;1.70;;;8.30;99.90;;;;;;4907485;29;20212;-77
2022/11/23 16:12:50;;;;;;;3.00;1.33;;;8.30;99.90;;;;;;4906701;29;20204;-75
2022/11/23 16:15:42;;;;;;;5.37;1.67;;;8.30;99.90;;;;;;4907203;29;20316;-76
2022/11/23 16:18:21;;;;;;;4.50;2.03;;;8.20;99.90;;;;;;4900394;29;20587;-75
2022/11/23 16:20:51;;;;;;;2.13;1.30;;;8.20;99.90;;;;;;4915838;29;20326;-74
2022/11/23 16:23:20;;;;;;;3.07;1.40;;;8.20;99.90;;;;;;4909957;29;20220;-75
2022/11/23 16:25:55;;;;;;;5.60;1.97;;;8.20;99.90;;;;;;4912826;29;20209;-73
2022/11/23 16:28:28;;;;;;;2.87;1.67;;;8.20;99.90;;;;;;4919068;29;20209;-74
2022/11/23 16:30:56;;;;;;;4.63;1.50;;;8.30;99.90;;;;;;4907032;29;20234;-75
2022/11/23 16:33:23;;;;;;;8.20;1.37;;;8.20;99.90;;;;;;4910130;29;20212;-73
2022/11/23 16:35:50;;;;;;;5.07;2.53;;;8.30;99.90;;;;;;4914060;29;20252;-73
2022/11/23 16:38:18;;;;;;;4.37;1.70;;;8.20;99.90;;;;;;4914221;29;20216;-72
2022/11/23 16:40:46;;;;;;;6.23;1.70;;;8.30;99.90;;;;;;4914235;29;20700;-75
2022/11/23 16:43:15;;;;;;;6.03;1.13;;;8.30;99.90;;;;;;4910555;29;20206;-73
2022/11/23 16:45:46;;;;;;;7.93;1.77;;;8.20;99.90;;;;;;4908962;29;20214;-75
2022/11/23 16:48:36;;;;;;;2.53;1.53;;;8.20;99.90;;;;;;4913097;29;20262;-76
2022/11/23 16:51:03;;;;;;;3.30;1.57;;;8.10;99.90;;;;;;4909587;29;20225;-73
2022/11/23 16:53:30;;;;;;;7.23;1.80;;;8.10;99.90;;;;;;4910536;29;20216;-77
2022/11/23 16:55:58;;;;;;;5.10;1.37;;;8.10;99.90;;;;;;4916460;29;20247;-74
2022/11/23 16:58:26;;;;;;;3.50;1.30;;;8.10;99.90;;;;;;4909901;29;20680;-73
2022/11/23 17:00:55;;;;;;;3.03;1.30;;;8.10;99.90;;;;;;4914510;29;20264;-75
2022/11/23 17:03:22;;;;;;;5.30;1.30;;;8.10;99.90;;;;;;4913623;29;20576;-74
2022/11/23 17:05:49;;;;;;;4.77;1.37;;;8.10;99.90;;;;;;4909796;29;20266;-75
2022/11/23 17:08:17;;;;;;;6.93;1.37;;;8.10;99.90;;;;;;4914943;29;20744;-73
2022/11/23 17:10:44;;;;;;;5.90;1.37;;;8.10;99.90;;;;;;4915050;29;20727;-72
2022/11/23 17:13:19;;;;;;;5.37;1.60;;;8.00;99.90;;;;;;4907883;29;20226;-75
2022/11/23 17:15:46;;;;;;;4.47;1.80;;;8.10;99.90;;;;;;4915389;29;20233;-76
2022/11/23 17:18:15;;;;;;;7.40;1.77;;;8.10;99.90;;;;;;4906381;29;20671;-74
2022/11/23 17:20:42;;;;;;;2.60;1.10;;;8.10;99.90;;;;;;4913337;29;20229;-75
2022/11/23 17:23:09;;;;;;;5.30;1.53;;;8.10;99.90;;;;;;4913187;29;20228;-74
2022/11/23 17:25:37;;;;;;;3.93;1.30;;;8.10;99.90;;;;;;4915937;29;20217;-76
2022/11/23 17:28:06;;;;;;;5.07;1.27;;;8.00;99.90;;;;;;4915842;29;20576;-74
2022/11/23 17:30:32;;;;;;;4.00;1.30;;;8.10;99.90;;;;;;4914995;29;20691;-74
2022/11/23 17:33:00;;;;;;;6.27;1.40;;;8.10;99.90;;;;;;4915833;29;20213;-75
2022/11/23 17:35:28;;;;;;;5.53;1.60;;;8.20;99.90;;;;;;4916770;29;20237;-75
2022/11/23 17:37:55;;;;;;;9.83;1.40;;;8.20;99.90;;;;;;4916832;29;20304;-77
2022/11/23 17:40:24;;;;;;;3.57;1.23;;;8.30;99.90;;;;;;4916749;29;20213;-76
2022/11/23 17:42:51;;;;;;;7.50;1.77;;;8.30;99.90;;;;;;4916862;29;20308;-75
2022/11/23 17:45:18;;;;;;;7.23;1.40;;;8.30;99.90;;;;;;4916607;29;20677;-75
2022/11/23 17:47:45;;;;;;;4.10;1.57;;;8.30;99.90;;;;;;4916555;29;20206;-78
2022/11/23 17:50:17;;;;;;;8.80;1.93;;;8.20;99.90;;;;;;4916578;29;20216;-79
2022/11/23 17:52:45;;;;;;;5.87;1.70;;;8.20;99.90;;;;;;4916892;29;20214;-78
2022/11/23 17:55:12;;;;;;;8.13;2.00;;;8.20;99.90;;;;;;4916491;29;20299;-78
2022/11/23 17:57:40;;;;;;;9.10;1.70;;;8.20;99.90;;;;;;4916842;29;20214;-77
2022/11/23 18:00:14;;;;;;;5.73;1.87;;;8.30;99.90;;;;;;4916734;29;20209;-78
2022/11/23 18:02:41;;;;;;;12.23;1.80;;;8.30;99.90;;;;;;4920599;29;20714;-78
2022/11/23 18:05:08;;;;;;;10.50;2.20;;;8.30;99.90;;;;;;4920001;29;20206;-78
2022/11/23 18:07:35;;;;;;;7.20;1.53;;;8.20;99.90;;;;;;4920222;29;20687;-78
2022/11/23 18:10:04;;;;;;;9.27;1.53;;;8.30;99.90;;;;;;4920491;29;20220;-77
2022/11/23 18:12:31;;;;;;;3.77;1.47;;;8.30;99.90;;;;;;4920167;29;20229;-75
2022/11/23 18:14:58;;;;;;;14.50;2.17;;;8.30;99.90;;;;;;4920006;29;20248;-77
2022/11/23 18:17:25;;;;;;;9.90;2.43;;;8.30;99.90;;;;;;4920794;29;20209;-78
2022/11/23 18:19:52;;;;;;;10.23;1.73;;;8.30;99.90;;;;;;4920851;29;20589;-78
2022/11/23 18:22:18;;;;;;;9.30;1.90;;;8.40;99.90;;;;;;4920060;29;20272;-79
2022/11/23 18:24:46;;;;;;;8.33;1.43;;;8.50;99.90;;;;;;4919769;29;20209;-73
2022/11/23 18:27:14;;;;;;;6.13;1.87;;;8.50;99.90;;;;;;4919840;29;20220;-78
2022/11/23 18:29:41;;;;;;;7.07;2.17;;;8.50;99.90;;;;;;4919838;29;20210;-77
2022/11/23 18:32:08;;;;;;;11.47;2.00;;;8.50;99.90;;;;;;4919452;29;20238;-78
2022/11/23 18:34:35;;;;;;;5.67;1.50;;;8.50;99.90;;;;;;4919413;29;20567;-77
2022/11/23 18:37:01;;;;;;;6.10;1.50;;;8.50;99.90;;;;;;4919591;29;20205;-74
2022/11/23 18:39:28;;;;;;;8.57;1.90;;;8.60;99.90;;;;;;4919481;29;20718;-78
2022/11/23 18:41:55;;;;;;;5.83;1.50;;;8.50;99.90;;;;;;4919865;29;20236;-77
2022/11/23 18:44:23;;;;;;;5.87;1.70;;;8.50;99.90;;;;;;4919425;29;20219;-76
2022/11/23 18:46:50;;;;;;;14.43;2.07;;;8.50;99.90;;;;;;4919813;29;20209;-77
2022/11/23 18:49:17;;;;;;;7.17;1.33;;;8.50;99.90;;;;;;4918416;29;20211;-75
2022/11/23 18:51:44;;;;;;;10.87;2.53;;;8.50;99.90;;;;;;4920514;29;20222;-77
2022/11/23 18:54:11;;;;;;;14.07;1.60;;;8.60;99.90;;;;;;4929079;29;20205;-75
2022/11/23 18:56:38;;;;;;;9.47;1.50;;;8.50;99.90;;;;;;4918589;29;20247;-76
2022/11/23 18:59:08;;;;;;;8.77;1.30;;;8.50;99.90;;;;;;4924191;29;20649;-76
2022/11/23 19:01:36;;;;;;;9.10;1.53;;;8.60;99.90;;;;;;4924023;29;20313;-77
2022/11/23 19:04:03;;;;;;;7.00;1.83;;;8.50;99.90;;;;;;4923373;29;20216;-77
2022/11/23 19:06:31;;;;;;;10.93;1.83;;;8.60;99.90;;;;;;4918526;29;20206;-77
2022/11/23 19:09:00;;;;;;;10.27;1.90;;;8.60;99.90;;;;;;4919632;29;20205;-78
2022/11/23 19:11:28;;;;;;;10.90;1.90;;;8.60;99.90;;;;;;4918634;29;20230;-78
2022/11/23 19:13:56;;;;;;;10.13;2.47;;;8.60;99.90;;;;;;4922044;29;20245;-76
2022/11/23 19:16:25;;;;;;;9.83;2.40;;;8.60;99.90;;;;;;4917986;29;20249;-77
2022/11/23 19:18:57;;;;;;;10.13;2.57;;;8.60;99.90;;;;;;4923714;29;20213;-77
2022/11/23 19:21:25;;;;;;;12.87;2.37;;;8.60;99.90;;;;;;4918341;29;20256;-78
2022/11/23 19:23:54;;;;;;;6.33;1.80;;;8.70;99.90;;;;;;4918105;29;20220;-77
2022/11/23 19:26:21;;;;;;;13.73;1.90;;;8.70;99.90;;;;;;4918005;29;20213;-78
2022/11/23 19:28:49;;;;;;;5.93;1.67;;;8.70;99.90;;;;;;4918396;29;20220;-77
2022/11/23 19:31:18;;;;;;;11.63;1.47;;;8.80;99.90;;;;;;4917923;29;20234;-77
2022/11/23 19:33:46;;;;;;;10.43;1.90;;;8.80;99.90;;;;;;4918167;29;20691;-77
2022/11/23 19:36:16;;;;;;;10.10;1.90;;;8.70;99.90;;;;;;4917795;29;20235;-77
2022/11/23 19:38:43;;;;;;;8.83;1.47;;;8.70;99.90;;;;;;4918031;29;20402;-76
2022/11/23 19:41:10;;;;;;;9.03;1.77;;;8.70;99.90;;;;;;4918195;29;20226;-77
2022/11/23 19:43:38;;;;;;;11.10;1.93;;;8.70;99.90;;;;;;4918056;29;20296;-77
2022/11/23 19:46:11;;;;;;;9.00;2.00;;;8.80;99.90;;;;;;4917845;29;20618;-76
2022/11/23 19:48:39;;;;;;;10.53;1.70;;;8.80;99.90;;;;;;4918066;29;20217;-77
2022/11/23 19:51:07;;;;;;;9.77;1.60;;;8.80;99.90;;;;;;4917713;29;20767;-77
2022/11/23 19:53:37;;;;;;;9.43;1.60;;;8.80;99.90;;;;;;4917933;29;20216;-77
2022/11/23 19:56:05;;;;;;;12.00;1.53;;;8.80;99.90;;;;;;4917053;29;20237;-75
2022/11/23 19:58:33;;;;;;;8.80;2.00;;;8.80;99.90;;;;;;4917635;29;20209;-76
2022/11/23 20:01:01;;;;;;;7.17;1.50;;;8.80;99.90;;;;;;4917460;29;20238;-77
2022/11/23 20:03:27;;;;;;;8.47;1.40;;;8.70;99.90;;;;;;4917881;29;20213;-76